Time;durP1;ratioP1;P1;durP2;ratioP2;P2;SDS_P1;SDS_P2;PMS_P1;PMS_P2;Temp;Humidity;BMP_temperature;BMP_pressure;BME280_temperature;BME280_humidity;BME280_pressure;Samples;Min_cycle;Max_cycle;Signal;HPM_P1;HPM_P2
2023/11/23 00:00:36;;;;;;;;;19.67;14.67;;;;;15.15;56.10;102206.63;6247811;22;45469;-84
2023/11/23 00:03:02;;;;;;;;;20.33;18.67;;;;;15.14;56.31;102186.94;6245112;22;45374;-84
2023/11/23 00:05:28;;;;;;;;;21.67;21.00;;;;;15.03;56.54;102174.22;6219537;22;45310;-84
2023/11/23 00:07:55;;;;;;;;;18.00;15.33;;;;;15.18;56.54;102187.91;6220888;22;45515;-84
2023/11/23 00:10:20;;;;;;;;;18.50;15.50;;;;;15.13;56.73;102173.56;6248378;22;45209;-84
2023/11/23 00:12:47;;;;;;;;;10.67;10.67;;;;;15.42;56.47;102174.03;6248756;22;45734;-83
2023/11/23 00:15:14;;;;;;;;;19.67;19.33;;;;;15.36;56.60;102179.31;6221176;22;44821;-83
2023/11/23 00:17:39;;;;;;;;;22.67;19.00;;;;;15.15;56.64;102166.44;6221791;22;45432;-83
2023/11/23 00:20:13;;;;;;;;;21.67;19.33;;;;;15.32;56.76;102164.94;6248332;22;45347;-83
2023/11/23 00:22:39;;;;;;;;;17.67;17.67;;;;;15.16;56.87;102155.72;6219682;22;46167;-83
2023/11/23 00:25:05;;;;;;;;;21.00;18.67;;;;;15.18;56.77;102164.69;6219584;22;45487;-84
2023/11/23 00:27:34;;;;;;;;;22.67;21.00;;;;;15.18;56.93;102161.13;6247475;22;45288;-84
2023/11/23 00:29:59;;;;;;;;;21.67;21.67;;;;;15.14;56.98;102153.91;6218583;22;47009;-83
2023/11/23 00:32:24;;;;;;;;;20.00;15.00;;;;;15.15;57.31;102145.00;6216909;22;45347;-83
2023/11/23 00:34:50;;;;;;;;;17.67;16.00;;;;;15.16;57.60;102144.09;6218184;22;45376;-83
2023/11/23 00:37:16;;;;;;;;;23.00;20.00;;;;;15.15;57.65;102134.28;6218426;22;45329;-83
2023/11/23 00:39:42;;;;;;;;;23.33;17.67;;;;;15.25;58.23;102138.94;6244207;22;45453;-83
2023/11/23 00:42:07;;;;;;;;;16.50;15.50;;;;;15.22;58.16;102141.53;6218724;22;45351;-83
2023/11/23 00:45:14;;;;;;;;;22.00;18.67;;;;;15.65;57.59;102131.50;6219499;22;45747;-83
2023/11/23 00:47:43;;;;;;;;;16.00;14.67;;;;;15.19;58.59;102126.31;6246383;22;45355;-83
2023/11/23 00:50:09;;;;;;;;;14.67;14.67;;;;;15.18;58.61;102120.91;6245034;22;45653;-84
2023/11/23 00:52:34;;;;;;;;;15.67;14.33;;;;;15.16;58.75;102111.94;6242042;22;45353;-84
2023/11/23 00:55:00;;;;;;;;;16.33;16.33;;;;;15.17;58.95;102116.44;6218930;22;45422;-83
2023/11/23 00:57:25;;;;;;;;;13.67;13.67;;;;;15.13;59.13;102115.50;6219332;22;45462;-84
2023/11/23 00:59:51;;;;;;;;;16.00;14.33;;;;;15.19;59.15;102114.69;6220382;22;47088;-84
2023/11/23 01:02:19;;;;;;;;;15.33;14.00;;;;;15.23;59.28;102121.91;6220326;22;44863;-84
2023/11/23 01:04:45;;;;;;;;;15.33;14.33;;;;;15.18;59.26;102110.19;6220600;22;45424;-84
2023/11/23 01:07:10;;;;;;;;;18.67;15.00;;;;;15.22;59.42;102114.75;6248729;22;45262;-84
2023/11/23 01:09:36;;;;;;;;;12.00;12.00;;;;;15.21;59.78;102112.94;6248320;22;46310;-85
2023/11/23 01:12:01;;;;;;;;;15.00;14.00;;;;;15.22;59.66;102106.69;6220674;22;47988;-84
2023/11/23 01:14:28;;;;;;;;;19.67;14.67;;;;;15.53;59.62;102100.06;6220635;22;46112;-84
2023/11/23 01:16:53;;;;;;;;;14.00;14.00;;;;;15.28;59.62;102109.47;6220433;22;45456;-83
2023/11/23 01:19:20;;;;;;;;;13.00;13.00;;;;;15.56;59.63;102096.53;6219905;22;47417;-84
2023/11/23 01:21:46;;;;;;;;;16.67;16.67;;;;;15.36;59.70;102096.19;6219680;22;45742;-84
2023/11/23 01:24:11;;;;;;;;;20.00;16.67;;;;;15.37;59.79;102098.91;6217652;22;45830;-84
2023/11/23 01:26:37;;;;;;;;;18.00;14.00;;;;;15.43;59.51;102102.56;6246574;22;45319;-84
2023/11/23 01:29:02;;;;;;;;;15.67;13.67;;;;;15.46;59.57;102102.63;6219369;22;47203;-84
2023/11/23 01:31:29;;;;;;;;;20.33;19.00;;;;;15.48;59.62;102109.81;6246965;22;45398;-83
2023/11/23 01:33:54;;;;;;;;;13.67;13.67;;;;;15.47;59.73;102120.50;6219478;22;45400;-83
2023/11/23 01:36:19;;;;;;;;;14.00;14.00;;;;;15.48;59.76;102111.59;6219536;22;45455;-83
2023/11/23 01:38:45;;;;;;;;;19.33;15.00;;;;;15.45;59.94;102108.84;6245996;22;45264;-83
2023/11/23 01:41:10;;;;;;;;;14.67;14.67;;;;;15.50;59.72;102123.25;6220596;22;45325;-84
2023/11/23 01:43:35;;;;;;;;;13.33;11.00;;;;;15.52;59.79;102110.75;6220403;22;45337;-83
2023/11/23 01:46:00;;;;;;;;;18.00;18.00;;;;;15.52;59.56;102114.34;6221973;22;45561;-85
2023/11/23 01:48:26;;;;;;;;;16.33;15.33;;;;;15.61;59.78;102113.56;6252799;22;46236;-85
2023/11/23 01:50:52;;;;;;;;;19.00;15.00;;;;;15.62;60.05;102123.44;6253755;22;44740;-84
2023/11/23 01:53:19;;;;;;;;;14.33;14.33;;;;;15.77;59.89;102121.03;6254466;22;44721;-84
2023/11/23 01:55:46;;;;;;;;;19.00;17.67;;;;;15.47;60.03;102115.13;6227436;22;44918;-85
2023/11/23 01:58:16;;;;;;;;;20.00;15.00;;;;;15.72;60.18;102138.81;6251922;22;45093;-84
2023/11/23 02:00:42;;;;;;;;;18.67;18.33;;;;;15.51;60.16;102123.28;6252851;22;44723;-84
2023/11/23 02:03:07;;;;;;;;;16.00;16.00;;;;;15.51;60.13;102106.25;6226500;22;44913;-84
2023/11/23 02:05:33;;;;;;;;;17.33;14.00;;;;;15.54;60.30;102106.31;6226860;22;44942;-85
2023/11/23 02:07:58;;;;;;;;;18.67;18.67;;;;;15.58;60.14;102118.91;6225758;22;48379;-84
2023/11/23 02:10:24;;;;;;;;;14.67;14.00;;;;;15.57;59.89;102130.47;6226116;22;44822;-84
2023/11/23 02:12:52;;;;;;;;;12.00;11.67;;;;;15.54;60.54;102122.41;6225534;22;45347;-84
2023/11/23 02:15:18;;;;;;;;;13.33;13.00;;;;;15.47;60.47;102123.19;6253102;22;44811;-84
2023/11/23 02:17:45;;;;;;;;;17.67;14.33;;;;;15.67;60.47;102137.78;6225628;22;47058;-84
2023/11/23 02:20:13;;;;;;;;;14.00;13.00;;;;;15.71;60.69;102120.88;6224585;22;45671;-84
2023/11/23 02:22:39;;;;;;;;;17.67;14.00;;;;;15.48;60.48;102138.41;6223850;22;44871;-84
2023/11/23 02:25:06;;;;;;;;;9.33;8.33;;;;;15.57;60.64;102139.47;6253409;22;44768;-84
2023/11/23 02:27:35;;;;;;;;;13.33;13.33;;;;;15.79;60.93;102130.00;6250084;22;47248;-85
2023/11/23 02:30:03;;;;;;;;;11.00;10.00;;;;;15.82;60.81;102136.28;6246713;22;45348;-84
2023/11/23 02:32:28;;;;;;;;;16.00;13.67;;;;;15.58;60.43;102143.94;6245396;22;45472;-85
2023/11/23 02:34:54;;;;;;;;;13.00;12.67;;;;;15.55;60.67;102126.88;6248084;22;45362;-85
2023/11/23 02:37:19;;;;;;;;;12.00;11.33;;;;;15.59;60.55;102126.03;6219393;22;46803;-85
2023/11/23 02:39:45;;;;;;;;;14.33;13.67;;;;;15.65;60.69;102135.97;6219917;22;45298;-85
2023/11/23 02:42:11;;;;;;;;;17.00;14.00;;;;;15.73;60.48;102134.34;6220402;22;45750;-85
2023/11/23 02:44:37;;;;;;;;;12.67;11.00;;;;;15.68;60.73;102131.56;6219648;22;45398;-85
2023/11/23 02:47:02;;;;;;;;;13.67;11.33;;;;;15.75;60.58;102137.94;6219533;22;45273;-85
2023/11/23 02:49:28;;;;;;;;;9.67;9.67;;;;;15.72;60.68;102120.03;6194743;22;45920;-86
2023/11/23 02:51:53;;;;;;;;;13.67;11.67;;;;;15.76;60.72;102129.94;6248036;22;45281;-86
2023/11/23 02:54:19;;;;;;;;;13.00;11.33;;;;;15.72;60.65;102128.09;6246926;22;45379;-86
2023/11/23 02:56:44;;;;;;;;;16.00;13.00;;;;;15.74;60.77;102131.69;6218351;22;47362;-86
2023/11/23 02:59:09;;;;;;;;;14.00;14.00;;;;;15.75;60.60;102133.50;6246608;22;45319;-85
2023/11/23 03:01:35;;;;;;;;;14.33;14.33;;;;;15.79;60.86;102131.75;6248522;22;45277;-86
2023/11/23 03:04:00;;;;;;;;;13.67;12.00;;;;;15.73;60.94;102121.81;6220017;22;45343;-86
2023/11/23 03:07:13;;;;;;;;;9.67;9.67;;;;;16.26;60.20;102127.91;6220329;22;47177;-86
2023/11/23 03:09:38;;;;;;;;;11.00;11.00;;;;;15.70;60.70;102119.09;6219899;22;45741;-86
2023/11/23 03:12:04;;;;;;;;;14.67;14.67;;;;;15.73;60.97;102123.63;6247198;22;63998;-86
2023/11/23 03:14:29;;;;;;;;;10.00;10.00;;;;;15.67;60.90;102119.03;6219959;22;45519;-86
2023/11/23 03:16:54;;;;;;;;;13.67;11.33;;;;;15.66;61.17;102117.22;6245970;22;45339;-86
2023/11/23 03:19:20;;;;;;;;;10.67;10.67;;;;;15.76;61.29;102139.78;6217179;22;45301;-86
2023/11/23 03:21:45;;;;;;;;;15.33;14.00;;;;;15.74;61.11;102128.13;6217618;22;45370;-86
2023/11/23 03:24:11;;;;;;;;;13.67;13.67;;;;;15.75;61.42;102128.16;6217147;22;45639;-87
2023/11/23 03:26:36;;;;;;;;;15.33;14.33;;;;;15.77;61.31;102134.44;6219992;22;46966;-86
2023/11/23 03:29:02;;;;;;;;;15.33;14.33;;;;;15.79;61.31;102135.38;6248090;22;45536;-86
2023/11/23 03:31:28;;;;;;;;;11.67;10.67;;;;;15.78;61.34;102130.84;6221298;22;45392;-86
2023/11/23 03:33:53;;;;;;;;;15.00;15.00;;;;;15.80;61.20;102129.09;6220444;22;45410;-85
2023/11/23 03:36:19;;;;;;;;;14.67;13.67;;;;;15.78;61.24;102127.28;6219931;22;47375;-85
2023/11/23 03:38:44;;;;;;;;;12.33;12.33;;;;;15.72;61.51;102114.69;6220749;22;45429;-85
2023/11/23 03:41:10;;;;;;;;;11.00;10.00;;;;;15.74;61.45;102120.06;6221170;22;45397;-86
2023/11/23 03:43:35;;;;;;;;;13.00;11.00;;;;;15.72;61.61;102122.72;6246657;22;45474;-85
2023/11/23 03:46:00;;;;;;;;;14.00;14.00;;;;;15.78;61.42;102122.81;6220218;22;47981;-85
2023/11/23 03:48:26;;;;;;;;;14.33;12.67;;;;;15.76;61.48;102124.56;6219871;22;45559;-85
2023/11/23 03:50:51;;;;;;;;;11.00;10.00;;;;;15.84;61.43;102126.47;6247277;22;45327;-85
2023/11/23 03:53:17;;;;;;;;;10.67;10.67;;;;;15.83;61.76;102113.94;6247814;22;45272;-85
2023/11/23 03:55:42;;;;;;;;;15.00;14.00;;;;;15.77;61.51;102126.38;6248151;22;45241;-85
2023/11/23 03:58:08;;;;;;;;;9.00;9.00;;;;;15.82;61.89;102128.25;6248864;22;44827;-85
2023/11/23 04:00:34;;;;;;;;;13.67;10.67;;;;;15.79;61.77;102130.00;6221212;22;45321;-85
2023/11/23 04:03:01;;;;;;;;;13.00;11.33;;;;;15.76;61.83;102124.56;6223607;22;45332;-85
2023/11/23 04:05:28;;;;;;;;;14.00;10.00;;;;;15.90;61.95;102119.41;6248175;22;45343;-86
2023/11/23 04:07:53;;;;;;;;;11.67;11.67;;;;;15.68;62.05;102104.75;6220360;22;45323;-86
2023/11/23 04:10:19;;;;;;;;;15.00;12.00;;;;;15.74;61.97;102115.59;6219920;22;45414;-86
2023/11/23 04:12:44;;;;;;;;;11.00;11.00;;;;;15.69;62.01;102095.81;6219602;22;45382;-86
2023/11/23 04:15:11;;;;;;;;;16.00;13.00;;;;;15.76;62.19;102102.22;6246664;22;45066;-86
2023/11/23 04:17:36;;;;;;;;;13.00;11.67;;;;;15.71;62.01;102106.56;6249062;22;45387;-86
2023/11/23 04:20:02;;;;;;;;;14.67;12.67;;;;;15.77;62.41;102107.63;6249774;22;45421;-86
2023/11/23 04:22:27;;;;;;;;;17.67;11.67;;;;;15.70;62.39;102120.88;6219884;22;45471;-86
2023/11/23 04:24:53;;;;;;;;;14.00;14.00;;;;;15.67;62.26;102112.75;6221790;22;46922;-86
2023/11/23 04:27:19;;;;;;;;;14.33;11.67;;;;;15.68;62.79;102118.16;6221163;22;45433;-86
2023/11/23 04:29:44;;;;;;;;;15.00;13.67;;;;;15.70;62.65;102121.75;6248192;22;45275;-86
2023/11/23 04:32:11;;;;;;;;;17.33;16.00;;;;;15.63;62.79;102105.56;6249339;22;45345;-86
2023/11/23 04:34:36;;;;;;;;;14.67;11.67;;;;;15.68;63.10;102104.75;6221453;22;46998;-86
2023/11/23 04:37:03;;;;;;;;;18.00;14.00;;;;;15.77;63.20;102115.66;6220079;22;45354;-85
2023/11/23 04:39:28;;;;;;;;;11.00;11.00;;;;;15.64;63.09;102102.00;6248519;22;45595;-84
2023/11/23 04:41:57;;;;;;;;;12.67;9.00;;;;;15.84;63.34;102105.00;6248267;22;45370;-85
2023/11/23 04:44:29;;;;;;;;;9.67;9.67;;;;;16.19;63.25;102111.72;6221123;22;47647;-84
2023/11/23 04:46:54;;;;;;;;;9.33;9.33;;;;;15.83;63.23;102116.63;6221255;22;45399;-85
2023/11/23 04:49:19;;;;;;;;;11.33;11.33;;;;;15.85;63.37;102117.53;6248780;22;44810;-85
2023/11/23 04:51:46;;;;;;;;;10.33;10.33;;;;;15.89;63.80;102116.69;6221457;22;45452;-85
2023/11/23 04:54:12;;;;;;;;;17.67;14.00;;;;;15.88;63.50;102113.13;6221605;22;47677;-85
2023/11/23 04:56:37;;;;;;;;;10.33;9.00;;;;;15.88;63.52;102113.13;6221040;22;45396;-85
2023/11/23 04:59:03;;;;;;;;;13.67;10.33;;;;;15.93;63.52;102107.81;6220353;22;45367;-85
2023/11/23 05:01:29;;;;;;;;;12.33;10.00;;;;;15.80;63.89;102112.13;6222032;22;44897;-85
2023/11/23 05:03:56;;;;;;;;;12.00;10.67;;;;;15.85;64.04;102117.53;6248748;22;45343;-85
2023/11/23 05:06:22;;;;;;;;;17.67;11.00;;;;;15.90;64.09;102115.84;6249553;22;44752;-86
2023/11/23 05:08:48;;;;;;;;;14.00;13.67;;;;;15.78;64.74;102113.88;6221075;22;44729;-85
2023/11/23 05:11:14;;;;;;;;;16.00;11.00;;;;;15.88;64.00;102113.13;6219864;22;45304;-85
2023/11/23 05:13:39;;;;;;;;;14.00;11.33;;;;;15.96;64.14;102130.22;6220372;22;47086;-85
2023/11/23 05:16:07;;;;;;;;;9.67;9.67;;;;;16.27;64.10;102127.06;6220859;22;45425;-85
2023/11/23 05:18:32;;;;;;;;;8.33;8.33;;;;;15.97;64.11;102129.31;6219675;22;45313;-85
2023/11/23 05:20:58;;;;;;;;;11.00;10.00;;;;;15.97;64.09;102131.13;6219956;22;45320;-85
2023/11/23 05:23:24;;;;;;;;;13.67;11.00;;;;;15.98;64.01;102124.88;6246343;22;45516;-85
2023/11/23 05:25:49;;;;;;;;;10.33;10.33;;;;;16.00;64.58;102121.34;6246817;22;45371;-85
2023/11/23 05:28:15;;;;;;;;;10.67;10.67;;;;;16.06;64.23;102107.09;6247089;22;45331;-85
2023/11/23 05:30:42;;;;;;;;;13.00;10.67;;;;;16.06;64.20;102116.91;6196120;22;45346;-85
2023/11/23 05:33:08;;;;;;;;;13.33;10.00;;;;;16.01;64.25;102108.81;6247596;22;46157;-85
2023/11/23 05:35:34;;;;;;;;;13.00;10.00;;;;;16.08;64.29;102110.72;6218683;22;45402;-85
2023/11/23 05:37:59;;;;;;;;;16.33;14.00;;;;;16.07;64.40;102113.38;6219692;22;45419;-85
2023/11/23 05:40:24;;;;;;;;;12.00;10.67;;;;;16.08;64.44;102109.78;6220650;22;45296;-85
2023/11/23 05:42:50;;;;;;;;;10.00;10.00;;;;;16.09;64.56;102104.44;6220695;22;47011;-85
2023/11/23 05:45:19;;;;;;;;;11.67;10.33;;;;;16.14;64.74;102113.47;6222041;22;45378;-85
2023/11/23 05:47:45;;;;;;;;;15.67;13.67;;;;;16.11;64.78;102115.22;6223566;22;45436;-85
2023/11/23 05:50:11;;;;;;;;;12.33;10.67;;;;;16.06;65.02;102109.78;6251835;22;45379;-86
2023/11/23 05:53:11;;;;;;;;;15.33;13.33;;;;;16.56;64.35;102108.59;6220696;22;48059;-86
2023/11/23 05:55:36;;;;;;;;;13.00;9.67;;;;;16.08;65.20;102105.34;6247054;22;45216;-85
2023/11/23 05:58:01;;;;;;;;;14.33;12.00;;;;;16.06;65.21;102101.75;6248709;22;45342;-85
2023/11/23 06:00:27;;;;;;;;;12.33;10.67;;;;;16.08;65.41;102097.28;6248888;22;45347;-85
2023/11/23 06:02:52;;;;;;;;;6.00;6.00;;;;;16.00;65.29;102097.19;6246453;22;45249;-85
2023/11/23 06:05:18;;;;;;;;;11.00;10.00;;;;;16.10;65.45;102097.31;6219580;22;45350;-85
2023/11/23 06:07:43;;;;;;;;;10.00;10.00;;;;;16.09;65.62;102104.44;6246772;22;45347;-85
2023/11/23 06:10:11;;;;;;;;;9.67;9.67;;;;;16.13;65.84;102105.41;6220599;22;45502;-85
2023/11/23 06:12:38;;;;;;;;;8.67;8.67;;;;;16.10;65.62;102087.47;6220984;22;47363;-85
2023/11/23 06:15:07;;;;;;;;;10.33;10.33;;;;;16.12;65.83;102093.78;6221020;22;45361;-85
2023/11/23 06:18:11;;;;;;;;;8.33;8.33;;;;;16.60;65.30;102091.63;6219818;22;45832;-85
2023/11/23 06:20:43;;;;;;;;;9.00;8.67;;;;;16.16;65.93;102084.88;6222030;22;45276;-85
2023/11/23 06:23:10;;;;;;;;;8.33;8.33;;;;;16.20;66.18;102094.75;6249102;22;45814;-85
2023/11/23 06:25:36;;;;;;;;;10.00;10.00;;;;;16.12;66.11;102085.72;6222208;22;45975;-86
2023/11/23 06:28:01;;;;;;;;;9.33;8.00;;;;;16.15;66.30;102092.91;6221471;22;45384;-86
2023/11/23 06:30:27;;;;;;;;;7.33;5.67;;;;;16.15;66.25;102084.84;6250066;22;44802;-85
2023/11/23 06:32:52;;;;;;;;;9.67;8.67;;;;;16.16;66.48;102105.44;6249406;22;45350;-85
2023/11/23 06:35:18;;;;;;;;;13.00;10.33;;;;;16.12;66.76;102095.56;6223594;22;45057;-86
2023/11/23 06:37:43;;;;;;;;;14.00;11.67;;;;;16.10;66.94;102083.91;6199451;22;45309;-85
2023/11/23 06:40:09;;;;;;;;;10.00;8.67;;;;;16.04;67.22;102079.34;6251384;22;45292;-85
2023/11/23 06:42:35;;;;;;;;;10.00;9.00;;;;;16.06;67.38;102096.38;6227937;22;46945;-86
2023/11/23 06:45:01;;;;;;;;;13.33;12.33;;;;;16.05;67.75;102097.25;6251187;22;44746;-86
2023/11/23 06:47:28;;;;;;;;;9.00;9.00;;;;;16.02;67.91;102089.16;6254170;22;45273;-86
2023/11/23 06:49:55;;;;;;;;;9.00;9.00;;;;;16.07;67.96;102097.25;6251682;22;44943;-86
2023/11/23 06:53:14;;;;;;;;;5.33;5.33;;;;;16.52;67.71;102096.94;6250941;22;45469;-86
2023/11/23 06:55:42;;;;;;;;;15.00;13.33;;;;;16.45;68.36;102105.78;6252142;22;45351;-86
2023/11/23 06:58:08;;;;;;;;;8.33;8.33;;;;;16.11;68.49;102104.47;6226306;22;45337;-86
2023/11/23 07:01:02;;;;;;;;;9.67;8.67;;;;;16.54;68.39;102105.91;6254138;22;45275;-85
2023/11/23 07:03:27;;;;;;;;;10.67;8.67;;;;;16.17;68.77;102100.06;6199667;22;47957;-85
2023/11/23 07:05:53;;;;;;;;;8.33;8.00;;;;;16.13;68.82;102098.22;6224427;22;45223;-85
2023/11/23 07:08:18;;;;;;;;;10.67;10.33;;;;;16.22;68.88;102118.03;6225033;22;45329;-84
2023/11/23 07:10:52;;;;;;;;;8.33;8.33;;;;;16.57;68.92;102110.41;6253138;22;45628;-84
2023/11/23 07:13:17;;;;;;;;;1.67;1.67;;;;;16.23;68.97;102111.78;6227510;22;48065;-84
2023/11/23 07:15:43;;;;;;;;;9.00;9.00;;;;;16.28;69.12;102112.72;6229607;22;45357;-86
2023/11/23 07:18:08;;;;;;;;;9.33;9.33;;;;;16.33;69.45;102106.53;6229863;22;45052;-86
2023/11/23 07:20:33;;;;;;;;;8.33;8.00;;;;;16.37;69.38;102103.00;6223154;22;44861;-85
2023/11/23 07:22:59;;;;;;;;;7.67;7.67;;;;;16.40;69.61;102096.78;6214981;22;46840;-86
2023/11/23 07:25:25;;;;;;;;;7.67;7.00;;;;;16.36;69.25;102094.94;6218817;22;45360;-85
2023/11/23 07:27:57;;;;;;;;;8.33;8.33;;;;;16.72;69.10;102080.13;6192410;22;45802;-85
2023/11/23 07:30:23;;;;;;;;;10.67;9.67;;;;;16.36;69.83;102082.44;6195536;22;45517;-86
2023/11/23 07:32:50;;;;;;;;;10.00;10.00;;;;;16.65;69.70;102091.69;6223555;22;46709;-86
2023/11/23 07:35:15;;;;;;;;;8.67;8.67;;;;;16.41;69.86;102098.59;6193467;22;45738;-86
2023/11/23 07:37:41;;;;;;;;;9.33;7.33;;;;;16.42;69.73;102078.00;6220175;22;45369;-85
2023/11/23 07:40:14;;;;;;;;;10.00;10.00;;;;;16.30;69.84;102074.31;6166469;22;45330;-85
2023/11/23 07:42:40;;;;;;;;;7.00;7.00;;;;;16.51;69.94;102088.84;6191314;22;47298;-86
2023/11/23 07:45:11;;;;;;;;;9.00;8.33;;;;;16.56;69.82;102061.19;6167412;22;45760;-86
2023/11/23 07:47:57;;;;;;;;;11.33;10.33;;;;;16.79;69.55;102063.19;6193007;22;45606;-86
2023/11/23 07:50:23;;;;;;;;;8.00;7.00;;;;;16.45;69.86;102065.50;6223064;22;44835;-86
2023/11/23 07:52:48;;;;;;;;;9.33;9.33;;;;;16.60;70.10;102083.56;6220143;22;46603;-86
2023/11/23 07:55:17;;;;;;;;;9.33;7.67;;;;;16.54;69.83;102057.56;6191400;22;45623;-84
2023/11/23 07:57:44;;;;;;;;;14.33;13.67;;;;;16.71;70.41;102102.50;6165393;22;45353;-85
2023/11/23 08:00:10;;;;;;;;;11.33;11.33;;;;;16.57;69.93;102079.06;6192887;22;45371;-84
2023/11/23 08:02:36;;;;;;;;;10.00;8.33;;;;;16.50;70.05;102066.47;6192752;22;47846;-85
2023/11/23 08:05:01;;;;;;;;;8.67;8.67;;;;;16.76;70.32;102103.44;6192893;22;44918;-85
2023/11/23 08:07:30;;;;;;;;;10.33;10.33;;;;;17.11;70.07;102101.13;6196330;22;45674;-85
2023/11/23 08:09:57;;;;;;;;;10.00;5.67;;;;;16.68;70.07;102070.22;6190740;22;45257;-85
2023/11/23 08:12:26;;;;;;;;;9.00;8.00;;;;;16.62;69.91;102059.41;6200819;22;47534;-85
2023/11/23 08:15:55;;;;;;;;;7.33;7.33;;;;;17.28;69.55;102101.28;6192685;22;45499;-86
2023/11/23 08:18:48;;;;;;;;;6.33;5.00;;;;;17.37;69.78;102098.66;6185575;22;45321;-85
2023/11/23 08:21:32;;;;;;;;;8.33;7.00;;;;;17.23;69.48;102076.16;6187023;22;45723;-85
2023/11/23 08:24:29;;;;;;;;;7.00;7.00;;;;;17.26;69.36;102072.56;6224638;22;46530;-86
2023/11/23 08:26:54;;;;;;;;;10.00;10.00;;;;;17.13;70.13;102114.59;6204195;22;44915;-85
2023/11/23 08:29:22;;;;;;;;;7.33;7.33;;;;;17.22;69.72;102108.38;6225241;22;44816;-85
2023/11/23 08:32:25;;;;;;;;;9.00;8.00;;;;;17.67;69.06;102120.38;6225123;22;44752;-85
2023/11/23 08:34:51;;;;;;;;;9.00;8.67;;;;;17.34;69.58;102122.81;6137910;23;45519;-86
2023/11/23 08:37:33;;;;;;;;;8.00;8.00;;;;;17.46;69.75;102091.56;6112873;23;45485;-86
2023/11/23 08:40:01;;;;;;;;;9.00;9.00;;;;;17.34;70.30;102090.56;6127759;23;45485;-86
2023/11/23 08:42:27;;;;;;;;;8.33;8.33;;;;;17.27;70.01;102115.63;6101057;23;45430;-86
2023/11/23 08:45:09;;;;;;;;;8.67;8.67;;;;;17.74;69.85;102125.81;6102124;23;46996;-86
2023/11/23 08:47:37;;;;;;;;;8.00;6.67;;;;;17.38;69.96;102086.09;6127336;23;45334;-86
2023/11/23 08:50:05;;;;;;;;;8.33;8.33;;;;;17.35;70.20;102103.13;6129479;23;45127;-86
2023/11/23 08:52:31;;;;;;;;;13.33;11.00;;;;;17.30;70.46;102103.97;6128950;23;45207;-86
2023/11/23 08:55:03;;;;;;;;;12.00;12.00;;;;;17.75;70.38;102105.19;6106347;23;47116;-85
2023/11/23 08:57:29;;;;;;;;;8.00;8.00;;;;;17.19;70.66;102071.63;6129691;23;44862;-86
2023/11/23 09:02:47;;;;;;;;;11.67;10.33;;;;;17.41;71.36;102078.09;6069080;23;45852;-85
2023/11/23 09:09:03;;;;;;;;;15.00;13.67;;;;;17.56;71.42;102107.75;6071275;23;44914;-85
2023/11/23 09:14:32;;;;;;;;;10.00;10.00;;;;;17.85;70.87;102114.25;6222861;22;45317;-85
2023/11/23 09:18:06;;;;;;;;;;;;;;;;;;;;;
2023/11/23 09:45:04;;;;;;;;;14.67;13.33;;;;;18.02;71.11;102126.03;6227037;22;45094;-84
2023/11/23 10:32:36;;;;;;;;;11.33;11.33;;;;;18.38;69.45;102070.53;6169652;23;45525;-83
2023/11/23 10:36:05;;;;;;;;;8.67;8.67;;;;;18.49;69.50;102066.06;6134292;23;45407;-85
2023/11/23 10:49:44;;;;;;;;;12.00;11.33;;;;;18.96;69.10;102059.84;6073073;23;45324;-84
2023/11/23 11:03:22;;;;;;;;;12.67;11.67;;;;;19.33;68.64;102038.28;6221313;22;45545;-84
2023/11/23 11:47:17;;;;;;;;;9.00;7.33;;;;;19.25;67.17;101948.41;6220164;22;45228;-80
2023/11/23 11:49:42;;;;;;;;;9.33;8.00;;;;;18.93;67.18;101962.81;6172111;22;45317;-84
2023/11/23 11:52:15;;;;;;;;;9.67;9.67;;;;;19.13;67.12;101925.03;6198161;22;45186;-84
2023/11/23 11:54:53;;;;;;;;;10.00;9.33;;;;;19.18;66.57;101935.81;6196351;22;45497;-84
2023/11/23 11:57:25;;;;;;;;;11.67;10.33;;;;;19.11;66.61;101939.44;6200296;22;47071;-85
2023/11/23 12:00:21;;;;;;;;;12.00;11.00;;;;;19.11;66.78;101950.22;6233369;22;44743;-89
2023/11/23 12:03:12;;;;;;;;;11.00;11.00;;;;;18.94;67.55;101934.06;6209304;22;44836;-89
2023/11/23 12:12:00;;;;;;;;;;;;;;;;;;;;;
2023/11/23 12:18:03;;;;;;;;;11.00;10.00;;;;;19.34;67.05;101945.66;6243594;22;44908;-89
2023/11/23 12:57:18;;;;;;;;;7.33;7.33;;;;;19.05;67.64;101851.38;6223503;22;45499;-86
2023/11/23 13:03:11;;;;;;;;;11.67;11.00;;;;;19.29;67.44;101877.34;6164880;22;46101;-85
2023/11/23 15:28:35;;;;;;;;;4.50;4.00;;;;;18.57;69.38;101740.97;6258727;22;45428;-85
2023/11/23 15:30:57;;;;;;;;;10.00;8.00;;;;;18.33;69.77;101759.88;6249712;22;45261;-85
2023/11/23 15:33:26;;;;;;;;;11.67;9.00;;;;;18.52;69.41;101742.81;6252636;22;46012;-87
2023/11/23 15:36:44;;;;;;;;;10.00;10.00;;;;;18.50;68.78;101725.75;6247890;22;45265;-86
2023/11/23 15:39:26;;;;;;;;;;;;;;;;;;;;;
2023/11/23 15:42:46;;;;;;;;;11.00;10.67;;;;;18.61;69.21;101746.38;6227776;22;65944;-86
2023/11/23 15:46:30;;;;;;;;;;;;;;;;;;;;;
2023/11/23 16:06:11;;;;;;;;;14.00;12.00;;;;;18.84;69.16;101720.25;6248304;22;45081;31
2023/11/23 16:30:09;;;;;;;;;16.33;14.00;;;;;18.77;68.41;101722.03;6163747;22;46626;-85
2023/11/23 16:32:44;;;;;;;;;15.67;12.67;;;;;18.20;69.20;101705.16;6168366;22;46946;-86
2023/11/23 16:41:21;;;;;;;;;14.00;14.00;;;;;18.35;69.44;101729.34;6200748;22;46360;-85
2023/11/23 16:43:47;;;;;;;;;18.67;17.33;;;;;17.97;69.50;101721.34;6239524;22;46951;-84
2023/11/23 16:56:32;;;;;;;;;8.33;5.67;;;;;17.91;69.51;101691.75;6160883;22;46423;-84
2023/11/23 16:58:58;;;;;;;;;3.00;3.00;;;;;17.81;69.07;101706.97;6198644;22;45108;-83
2023/11/23 17:01:24;;;;;;;;;5.33;4.00;;;;;17.72;69.16;101707.88;6245717;22;46458;-83
2023/11/23 17:04:01;;;;;;;;;4.00;4.00;;;;;18.15;69.25;101739.28;6267192;22;45216;-84
2023/11/23 17:06:28;;;;;;;;;3.00;3.00;;;;;18.12;69.88;101731.22;6240652;22;44744;-84
2023/11/23 17:08:53;;;;;;;;;3.00;2.00;;;;;17.80;69.57;101718.63;6269006;22;44833;-84
2023/11/23 17:13:54;;;;;;;;;7.33;4.00;;;;;17.84;70.09;101714.19;6293326;22;46223;-83
2023/11/23 17:16:21;;;;;;;;;5.33;5.00;;;;;18.14;70.22;101727.63;6251444;22;46053;-85
2023/11/23 17:18:48;;;;;;;;;4.00;4.00;;;;;18.00;69.49;101737.50;6242365;22;44808;-85
2023/11/23 17:27:34;;;;;;;;;4.33;4.00;;;;;18.45;69.06;101703.28;6259456;22;49078;-84
2023/11/23 17:30:00;;;;;;;;;2.50;2.50;;;;;18.02;69.50;101702.47;6225165;22;44986;-85
2023/11/23 17:32:25;;;;;;;;;3.67;3.67;;;;;17.86;69.37;101675.59;6236340;22;44818;-84
2023/11/23 17:34:53;;;;;;;;;4.00;4.00;;;;;18.41;69.29;101700.63;6235694;22;45237;-85
2023/11/23 17:37:19;;;;;;;;;3.67;2.33;;;;;17.88;69.53;101667.53;6204535;22;45109;-83
2023/11/23 17:39:44;;;;;;;;;4.33;3.67;;;;;17.91;69.24;101672.91;6266059;22;44873;-84
2023/11/23 17:42:11;;;;;;;;;1.00;1.00;;;;;18.13;69.46;101689.91;6266767;22;44697;-84
2023/11/23 17:44:37;;;;;;;;;2.67;2.67;;;;;18.02;69.48;101671.09;6234488;22;47203;-84
2023/11/23 17:49:37;;;;;;;;;4.00;4.00;;;;;18.01;69.50;101663.91;6209260;22;45444;-83
2023/11/23 17:52:03;;;;;;;;;2.33;2.00;;;;;17.93;69.12;101644.19;6267631;22;44775;-85
2023/11/23 17:54:29;;;;;;;;;5.00;4.00;;;;;18.02;69.38;101659.41;6241707;22;46853;-84
2023/11/23 17:56:55;;;;;;;;;3.00;2.00;;;;;18.16;69.61;101690.81;6241157;22;44748;-85
2023/11/23 17:59:23;;;;;;;;;3.00;3.00;;;;;18.15;69.69;101691.69;6242021;22;44815;-84
2023/11/23 18:01:49;;;;;;;;;3.00;3.00;;;;;18.03;69.59;101672.00;6269428;22;44724;-84
2023/11/23 18:04:22;;;;;;;;;3.00;2.67;;;;;18.02;69.62;101680.94;6241688;22;47225;-84
2023/11/23 18:06:47;;;;;;;;;2.67;2.67;;;;;18.09;69.61;101706.97;6269279;22;44820;-84
2023/11/23 18:09:12;;;;;;;;;2.33;2.33;;;;;18.07;69.45;101689.94;6266741;22;44872;-84
2023/11/23 18:11:38;;;;;;;;;7.33;5.00;;;;;17.87;70.08;101672.00;6268866;22;44698;-85